createdAt,value
2019-02-02T00:00:53.903Z,88.34
2019-02-02T00:03:25.401Z,88.52
2019-02-02T00:05:56.293Z,88.57
2019-02-02T00:08:27.335Z,88.66
2019-02-02T00:10:58.290Z,88.63
2019-02-02T00:13:29.351Z,88.62
2019-02-02T00:16:00.251Z,88.73
2019-02-02T00:18:31.235Z,88.75
2019-02-02T00:21:02.041Z,88.74
2019-02-02T00:23:33.013Z,88.38
2019-02-02T00:26:04.143Z,88.03
2019-02-02T00:28:35.175Z,87.99
2019-02-02T00:31:06.191Z,88.37
2019-02-02T00:33:37.283Z,88.48
2019-02-02T00:36:08.184Z,88.57
2019-02-02T00:38:40.038Z,88.47
2019-02-02T00:41:10.878Z,88.53
2019-02-02T00:43:42.064Z,89.15
2019-02-02T00:46:12.948Z,88.96
2019-02-02T00:48:43.932Z,88.95
2019-02-02T00:51:14.843Z,88.94
2019-02-02T00:53:45.939Z,89.08
2019-02-02T00:56:16.699Z,89.18
2019-02-02T00:58:47.928Z,89.04
2019-02-02T01:01:19.207Z,89.05
2019-02-02T01:03:50.585Z,89.17
2019-02-02T01:06:21.495Z,89.43
2019-02-02T01:08:52.668Z,89.12
2019-02-02T01:11:23.763Z,88.89
2019-02-02T01:13:54.859Z,88.68
2019-02-02T01:16:25.758Z,88.69
2019-02-02T01:18:56.740Z,88.70
2019-02-02T01:21:27.629Z,88.86
2019-02-02T01:23:58.778Z,88.84
2019-02-02T01:26:29.727Z,88.82
2019-02-02T01:29:00.755Z,88.89
2019-02-02T01:31:31.793Z,88.44
2019-02-02T01:34:02.796Z,88.22
2019-02-02T01:36:33.948Z,88.24
2019-02-02T01:39:07.538Z,88.52
2019-02-02T01:41:39.551Z,88.96
2019-02-02T01:44:10.448Z,89.03
2019-02-02T01:46:41.309Z,89.23
2019-02-02T01:49:12.588Z,89.29
2019-02-02T01:51:43.515Z,89.25
2019-02-02T01:54:14.507Z,88.94
2019-02-02T01:56:45.366Z,89.06
2019-02-02T01:59:16.370Z,88.76
2019-02-02T02:01:47.245Z,88.73
2019-02-02T02:04:18.058Z,88.94
2019-02-02T02:06:48.838Z,88.95
2019-02-02T02:09:19.827Z,88.97
2019-02-02T02:11:50.796Z,89.00
2019-02-02T02:14:21.848Z,89.04
2019-02-02T02:16:52.797Z,89.15
2019-02-02T02:19:23.683Z,89.09
2019-02-02T02:21:54.570Z,89.21
2019-02-02T02:24:25.530Z,89.22
2019-02-02T02:26:56.433Z,89.11
2019-02-02T02:29:27.536Z,88.68
2019-02-02T02:31:58.443Z,88.61
2019-02-02T02:34:29.435Z,88.65
2019-02-02T02:37:00.284Z,88.74
2019-02-02T02:39:31.311Z,88.90
2019-02-02T02:42:02.292Z,88.99
2019-02-02T02:44:33.255Z,88.96
2019-02-02T02:47:04.143Z,89.00
2019-02-02T02:49:35.052Z,88.74
2019-02-02T02:52:06.038Z,88.85
2019-02-02T02:54:36.930Z,89.20
2019-02-02T02:57:07.724Z,89.09
2019-02-02T02:59:38.584Z,89.23
2019-02-02T03:02:09.467Z,89.40
2019-02-02T03:04:40.829Z,89.40
2019-02-02T03:07:11.763Z,89.06
2019-02-02T03:09:42.657Z,88.95
2019-02-02T03:12:13.631Z,89.06
2019-02-02T03:14:44.741Z,88.89
2019-02-02T03:17:15.516Z,88.86
2019-02-02T03:19:46.498Z,89.15
2019-02-02T03:22:17.383Z,89.27
2019-02-02T03:24:48.305Z,89.30
2019-02-02T03:27:19.244Z,89.25
2019-02-02T03:29:50.075Z,89.23
2019-02-02T03:32:21.028Z,89.32
2019-02-02T03:34:52.043Z,89.73
2019-02-02T03:37:22.916Z,89.94
2019-02-02T03:39:53.916Z,90.00
2019-02-02T03:42:24.792Z,90.12
2019-02-02T03:44:55.925Z,90.29
2019-02-02T03:47:26.679Z,90.14
2019-02-02T03:49:57.661Z,90.05
2019-02-02T03:52:28.471Z,90.01
2019-02-02T03:54:59.355Z,89.89
2019-02-02T03:57:30.220Z,89.49
2019-02-02T04:00:01.323Z,89.45
2019-02-02T04:02:33.437Z,89.76
2019-02-02T04:05:04.726Z,90.07
2019-02-02T04:07:35.636Z,90.24
2019-02-02T04:10:08.449Z,90.17
2019-02-02T04:12:39.334Z,89.98
2019-02-02T04:15:10.665Z,89.95
2019-02-02T04:17:42.020Z,89.83
2019-02-02T04:20:15.544Z,89.84
2019-02-02T04:22:46.465Z,89.71
2019-02-02T04:25:18.391Z,89.53
2019-02-02T04:27:49.501Z,89.79
2019-02-02T04:30:22.396Z,90.38
2019-02-02T04:32:53.295Z,90.43
2019-02-02T04:35:24.491Z,90.32
2019-02-02T04:37:55.398Z,90.18
2019-02-02T04:40:27.091Z,89.64
2019-02-02T04:42:57.987Z,89.50
2019-02-02T04:45:29.168Z,89.29
2019-02-02T04:48:00.054Z,89.44
2019-02-02T04:50:30.948Z,89.66
2019-02-02T04:53:01.635Z,89.83
2019-02-02T04:55:32.708Z,89.70
2019-02-02T04:58:03.723Z,89.25
2019-02-02T05:00:34.719Z,89.30
2019-02-02T05:03:05.701Z,89.53
2019-02-02T05:05:36.691Z,89.75
2019-02-02T05:08:07.588Z,89.80
2019-02-02T05:10:38.639Z,89.62
2019-02-02T05:13:09.539Z,89.42
2019-02-02T05:15:40.834Z,89.43
2019-02-02T05:18:11.642Z,89.40
2019-02-02T05:20:42.703Z,89.05
2019-02-02T05:23:13.604Z,89.08
2019-02-02T05:25:44.603Z,88.81
2019-02-02T05:28:15.498Z,88.86
2019-02-02T05:30:46.551Z,88.88
2019-02-02T05:33:17.478Z,88.98
2019-02-02T05:35:48.459Z,88.68
2019-02-02T05:38:19.335Z,88.60
2019-02-02T05:40:51.134Z,88.46
2019-02-02T05:43:22.054Z,88.55
2019-02-02T05:45:53.314Z,88.83
2019-02-02T05:48:24.242Z,89.02
2019-02-02T05:50:55.130Z,89.24
2019-02-02T05:53:26.011Z,89.46
2019-02-02T05:55:56.996Z,89.54
2019-02-02T05:58:28.191Z,89.73
2019-02-02T06:00:59.191Z,89.86
2019-02-02T06:03:30.075Z,89.85
2019-02-02T06:06:00.951Z,89.72
2019-02-02T06:08:31.726Z,89.63
2019-02-02T06:11:02.707Z,89.39
2019-02-02T06:13:33.505Z,89.28
2019-02-02T06:16:04.702Z,89.19
2019-02-02T06:18:35.583Z,88.97
2019-02-02T06:21:06.579Z,88.92
2019-02-02T06:23:37.383Z,89.00
2019-02-02T06:26:08.372Z,89.11
2019-02-02T06:28:39.261Z,89.13
2019-02-02T06:31:10.333Z,89.21
2019-02-02T06:33:41.116Z,89.38
2019-02-02T06:36:12.131Z,89.45
2019-02-02T06:38:42.911Z,89.41
2019-02-02T06:41:14.227Z,89.29
2019-02-02T06:43:45.285Z,89.02
2019-02-02T06:46:16.275Z,88.87
2019-02-02T06:48:47.178Z,88.87
2019-02-02T06:51:18.141Z,88.57
2019-02-02T06:53:48.952Z,88.36
2019-02-02T06:56:19.947Z,88.23
2019-02-02T06:58:50.817Z,88.16
2019-02-02T07:01:22.179Z,88.19
2019-02-02T07:03:53.114Z,88.20
2019-02-02T07:06:24.094Z,88.35
2019-02-02T07:08:55.293Z,88.24
2019-02-02T07:11:26.195Z,89.04
2019-02-02T07:13:57.075Z,88.63
2019-02-02T07:16:28.061Z,88.53
2019-02-02T07:18:58.931Z,88.33
2019-02-02T07:21:29.900Z,88.37
2019-02-02T07:24:00.711Z,88.76
2019-02-02T07:26:31.695Z,88.88
2019-02-02T07:29:02.608Z,89.12
2019-02-02T07:31:33.699Z,89.48
2019-02-02T07:34:04.582Z,89.59
2019-02-02T07:36:35.727Z,89.46
2019-02-02T07:39:08.413Z,89.69
2019-02-02T07:41:41.213Z,89.47
2019-02-02T07:44:12.108Z,88.94
2019-02-02T07:46:43.103Z,89.07
2019-02-02T07:49:13.903Z,89.17
2019-02-02T07:51:44.802Z,89.11
2019-02-02T07:54:15.664Z,88.96
2019-02-02T07:56:46.603Z,88.98
2019-02-02T07:59:17.635Z,89.08
2019-02-02T08:01:48.647Z,89.15
2019-02-02T08:04:21.334Z,89.41
2019-02-02T08:06:53.884Z,89.52
2019-02-02T08:09:25.920Z,89.67
2019-02-02T08:11:57.916Z,89.61
2019-02-02T08:14:28.819Z,89.49
2019-02-02T08:16:59.743Z,89.32
2019-02-02T08:19:30.682Z,89.06
2019-02-02T08:22:01.572Z,88.77
2019-02-02T08:24:32.455Z,88.67
2019-02-02T08:27:03.558Z,88.55
2019-02-02T08:29:34.451Z,88.46
2019-02-02T08:32:06.100Z,88.67
2019-02-02T08:34:37.031Z,88.66
2019-02-02T08:37:08.319Z,89.21
2019-02-02T08:39:39.515Z,89.48
2019-02-02T08:42:10.566Z,89.51
2019-02-02T08:44:41.312Z,89.29
2019-02-02T08:47:12.487Z,89.79
2019-02-02T08:49:43.291Z,89.62
2019-02-02T08:52:14.280Z,89.02
2019-02-02T08:54:45.057Z,89.50
2019-02-02T08:57:16.311Z,89.67
2019-02-02T08:59:47.352Z,90.09
2019-02-02T09:02:18.180Z,90.06
2019-02-02T09:04:49.104Z,90.08
2019-02-02T09:07:20.108Z,90.82
2019-02-02T09:09:50.988Z,91.02
2019-02-02T09:12:22.709Z,90.75
2019-02-02T09:14:53.375Z,90.56
2019-02-02T09:17:24.370Z,90.25
2019-02-02T09:19:55.356Z,89.75
2019-02-02T09:22:26.264Z,89.54
2019-02-02T09:24:57.311Z,90.22
2019-02-02T09:27:28.356Z,90.49
2019-02-02T09:29:59.323Z,90.67
2019-02-02T09:32:30.308Z,90.68
2019-02-02T09:35:01.211Z,90.53
2019-02-02T09:37:32.104Z,90.79
2019-02-02T09:40:02.985Z,90.57
2019-02-02T09:42:34.675Z,90.04
2019-02-02T09:45:07.310Z,89.66
2019-02-02T09:47:38.305Z,88.93
2019-02-02T09:50:11.235Z,89.25
2019-02-02T09:52:42.382Z,88.90
2019-02-02T09:55:14.957Z,88.39
2019-02-02T09:57:45.939Z,88.38
2019-02-02T10:00:25.707Z,88.68
2019-02-02T10:02:56.760Z,89.00
2019-02-02T10:05:28.045Z,89.14
2019-02-02T10:07:59.211Z,88.37
2019-02-02T10:10:31.769Z,89.42
2019-02-02T10:13:02.943Z,88.84
2019-02-02T10:15:33.833Z,88.05
2019-02-02T10:18:05.147Z,88.00
2019-02-02T10:20:36.006Z,87.35
2019-02-02T10:23:07.325Z,87.06
2019-02-02T10:25:39.234Z,85.91
2019-02-02T10:28:10.230Z,85.33
2019-02-02T10:30:43.298Z,84.21
2019-02-02T10:33:15.178Z,83.45
2019-02-02T10:35:46.049Z,83.40
2019-02-02T10:38:17.053Z,83.23
2019-02-02T10:40:47.941Z,82.41
2019-02-02T10:43:19.699Z,82.21
2019-02-02T10:45:50.634Z,80.61
2019-02-02T10:48:21.619Z,81.36
2019-02-02T10:50:52.385Z,79.27
2019-02-02T10:53:23.383Z,78.13
2019-02-02T10:55:54.262Z,79.26
2019-02-02T10:58:25.251Z,79.12
2019-02-02T11:00:56.265Z,77.75
2019-02-02T11:03:27.254Z,78.43
2019-02-02T11:05:58.222Z,78.80
2019-02-02T11:08:29.394Z,78.75
2019-02-02T11:11:00.456Z,78.01
2019-02-02T11:13:31.520Z,77.76
2019-02-02T11:16:02.283Z,77.51
2019-02-02T11:18:33.502Z,77.40
2019-02-02T11:21:04.639Z,78.80
2019-02-02T11:23:35.962Z,77.86
2019-02-02T11:26:06.888Z,75.74
2019-02-02T11:28:38.010Z,77.48
2019-02-02T11:31:08.856Z,77.53
2019-02-02T11:33:40.093Z,74.65
2019-02-02T11:36:11.048Z,77.03
2019-02-02T11:38:42.014Z,76.34
2019-02-02T11:41:12.917Z,74.73
2019-02-02T11:43:44.489Z,74.70
2019-02-02T11:46:15.406Z,74.00
2019-02-02T11:48:46.791Z,75.44
2019-02-02T11:51:17.731Z,77.20
2019-02-02T11:53:48.832Z,74.00
2019-02-02T11:56:19.689Z,74.81
2019-02-02T11:58:50.280Z,74.18
2019-02-02T12:01:21.245Z,68.94
2019-02-02T12:03:52.305Z,70.40
2019-02-02T12:06:23.203Z,69.73
2019-02-02T12:08:54.101Z,66.95
2019-02-02T12:11:24.982Z,67.89
2019-02-02T12:13:56.409Z,67.33
2019-02-02T12:16:27.268Z,67.38
2019-02-02T12:18:58.350Z,67.83
2019-02-02T12:21:29.258Z,70.18
2019-02-02T12:24:12.753Z,66.27
2019-02-02T12:26:33.090Z,66.06
2019-02-02T12:29:04.092Z,68.84
2019-02-02T12:31:34.949Z,68.60
2019-02-02T12:34:06.375Z,68.68
2019-02-02T12:36:37.152Z,66.44
2019-02-02T12:39:11.708Z,68.05
2019-02-02T12:41:42.709Z,67.15
2019-02-02T12:44:13.850Z,66.21
2019-02-02T12:46:44.804Z,66.33
2019-02-02T12:49:15.696Z,66.42
2019-02-02T12:51:46.468Z,65.39
2019-02-02T12:54:17.358Z,65.80
2019-02-02T12:56:48.126Z,67.08
2019-02-02T12:59:19.130Z,66.59
2019-02-02T13:01:50.101Z,63.79
2019-02-02T13:04:21.099Z,65.92
2019-02-02T13:06:52.309Z,65.40
2019-02-02T13:09:23.546Z,65.54
2019-02-02T13:11:56.171Z,62.31
2019-02-02T13:14:27.192Z,63.70
2019-02-02T13:16:59.888Z,65.84
2019-02-02T13:19:30.526Z,65.14
2019-02-02T13:22:01.421Z,63.19
2019-02-02T13:24:32.399Z,64.11
2019-02-02T13:27:03.297Z,64.96
2019-02-02T13:29:34.273Z,64.30
2019-02-02T13:32:05.161Z,66.23
2019-02-02T13:34:36.123Z,66.41
2019-02-02T13:37:07.034Z,66.30
2019-02-02T13:39:38.059Z,67.31
2019-02-02T13:42:08.934Z,66.39
2019-02-02T13:44:40.693Z,67.38
2019-02-02T13:47:11.529Z,67.54
2019-02-02T13:49:42.709Z,66.52
2019-02-02T13:52:13.589Z,66.65
2019-02-02T13:54:44.484Z,67.39
2019-02-02T13:57:15.532Z,65.69
2019-02-02T13:59:46.284Z,65.04
2019-02-02T14:02:17.644Z,63.85
2019-02-02T14:04:48.845Z,63.07
2019-02-02T14:07:19.750Z,64.75
2019-02-02T14:09:51.015Z,64.88
2019-02-02T14:12:21.929Z,64.91
2019-02-02T14:14:52.823Z,62.87
2019-02-02T14:17:23.584Z,63.54
2019-02-02T14:19:54.497Z,63.11
2019-02-02T14:22:25.365Z,63.36
2019-02-02T14:24:56.414Z,65.74
2019-02-02T14:27:27.739Z,63.67
2019-02-02T14:29:58.824Z,64.67
2019-02-02T14:32:29.732Z,63.17
2019-02-02T14:35:00.630Z,63.01
2019-02-02T14:37:32.544Z,66.42
2019-02-02T14:40:03.613Z,62.89
2019-02-02T14:42:34.425Z,63.11
2019-02-02T14:45:07.765Z,63.44
2019-02-02T14:47:39.065Z,63.83
2019-02-02T14:50:12.724Z,67.11
2019-02-02T14:52:43.692Z,64.89
2019-02-02T14:55:16.862Z,62.74
2019-02-02T14:57:47.413Z,63.82
2019-02-02T15:00:23.416Z,64.21
2019-02-02T15:02:54.580Z,66.91
2019-02-02T15:05:25.607Z,65.57
2019-02-02T15:07:57.734Z,67.17
2019-02-02T15:10:28.805Z,67.01
2019-02-02T15:12:59.625Z,66.74
2019-02-02T15:15:30.690Z,65.15
2019-02-02T15:18:01.497Z,66.48
2019-02-02T15:20:37.139Z,68.03
2019-02-02T15:23:08.468Z,67.27
2019-02-02T15:25:39.658Z,67.37
2019-02-02T15:28:11.600Z,69.14
2019-02-02T15:30:42.742Z,69.26
2019-02-02T15:33:13.662Z,69.62
2019-02-02T15:35:44.642Z,69.75
2019-02-02T15:38:16.994Z,70.23
2019-02-02T15:40:58.464Z,70.52
2019-02-02T15:43:22.403Z,69.99
2019-02-02T15:45:53.326Z,70.68
2019-02-02T15:48:24.109Z,70.19
2019-02-02T15:50:55.033Z,69.49
2019-02-02T15:53:25.905Z,70.71
2019-02-02T15:55:57.241Z,69.94
2019-02-02T15:58:28.182Z,70.60
2019-02-02T16:00:59.220Z,69.92
2019-02-02T16:03:29.956Z,70.54
2019-02-02T16:06:00.954Z,70.36
2019-02-02T16:08:31.732Z,70.30
2019-02-02T16:11:02.719Z,70.47
2019-02-02T16:13:33.596Z,71.04
2019-02-02T16:16:04.807Z,70.44
2019-02-02T16:18:35.710Z,71.19
2019-02-02T16:21:06.572Z,72.09
2019-02-02T16:23:37.355Z,72.81
2019-02-02T16:26:08.300Z,72.58
2019-02-02T16:28:39.264Z,72.84
2019-02-02T16:31:10.242Z,73.02
2019-02-02T16:33:41.237Z,73.51
2019-02-02T16:36:12.292Z,73.44
2019-02-02T16:38:43.193Z,73.99
2019-02-02T16:41:14.379Z,74.30
2019-02-02T16:43:45.192Z,74.56
2019-02-02T16:46:16.283Z,74.80
2019-02-02T16:48:47.149Z,74.96
2019-02-02T16:51:17.959Z,75.12
2019-02-02T16:53:48.832Z,75.26
2019-02-02T16:56:19.719Z,75.70
2019-02-02T16:58:50.600Z,75.84
2019-02-02T17:01:21.702Z,75.40
2019-02-02T17:03:52.697Z,75.51
2019-02-02T17:06:23.940Z,75.77
2019-02-02T17:08:54.860Z,75.83
2019-02-02T17:11:25.913Z,75.45
2019-02-02T17:13:56.758Z,75.72
2019-02-02T17:16:27.662Z,75.21
2019-02-02T17:18:58.617Z,75.63
2019-02-02T17:21:29.618Z,75.71
2019-02-02T17:24:00.304Z,75.14
2019-02-02T17:26:31.369Z,74.70
2019-02-02T17:29:02.270Z,73.71
2019-02-02T17:31:33.358Z,73.38
2019-02-02T17:34:04.456Z,74.02
2019-02-02T17:36:40.522Z,73.93
2019-02-02T17:39:11.772Z,72.89
2019-02-02T17:41:42.709Z,73.14
2019-02-02T17:44:13.534Z,73.26
2019-02-02T17:46:45.352Z,72.95
2019-02-02T17:49:16.349Z,73.07
2019-02-02T17:51:47.383Z,73.19
2019-02-02T17:54:18.424Z,73.39
2019-02-02T17:56:49.297Z,72.77
2019-02-02T17:59:20.423Z,72.68
2019-02-02T18:01:51.585Z,73.58
2019-02-02T18:04:22.578Z,72.62
2019-02-02T18:06:53.338Z,72.73
2019-02-02T18:09:24.914Z,72.75
2019-02-02T18:11:55.908Z,73.74
2019-02-02T18:14:26.954Z,72.86
2019-02-02T18:16:57.901Z,73.10
2019-02-02T18:19:28.814Z,73.07
2019-02-02T18:21:59.667Z,73.34
2019-02-02T18:24:30.735Z,73.20
2019-02-02T18:27:01.773Z,72.90
2019-02-02T18:29:32.751Z,73.03
2019-02-02T18:32:12.718Z,73.66
2019-02-02T18:34:36.545Z,73.46
2019-02-02T18:37:07.459Z,73.12
2019-02-02T18:39:38.634Z,73.33
2019-02-02T18:42:09.420Z,73.82
2019-02-02T18:44:40.882Z,73.74
2019-02-02T18:47:12.644Z,73.86
2019-02-02T18:49:44.649Z,74.10
2019-02-02T18:52:16.550Z,74.42
2019-02-02T18:54:47.565Z,74.83
2019-02-02T18:57:18.335Z,74.63
2019-02-02T18:59:49.278Z,74.88
2019-02-02T19:02:20.351Z,75.57
2019-02-02T19:05:02.930Z,75.83
2019-02-02T19:07:23.825Z,75.45
2019-02-02T19:09:55.921Z,75.66
2019-02-02T19:12:26.493Z,75.39
2019-02-02T19:14:57.110Z,75.61
2019-02-02T19:17:32.093Z,75.57
2019-02-02T19:20:03.793Z,75.66
2019-02-02T19:22:34.581Z,75.76
2019-02-02T19:25:06.593Z,75.79
2019-02-02T19:27:37.481Z,75.75
2019-02-02T19:30:12.175Z,76.56
2019-02-02T19:32:43.060Z,76.29
2019-02-02T19:35:16.432Z,76.06
2019-02-02T19:37:47.478Z,76.10
2019-02-02T19:40:20.749Z,76.71
2019-02-02T19:42:51.645Z,76.46
2019-02-02T19:45:24.050Z,76.56
2019-02-02T19:47:54.929Z,76.58
2019-02-02T19:50:26.738Z,76.62
2019-02-02T19:52:57.627Z,76.95
2019-02-02T19:55:28.586Z,76.96
2019-02-02T19:57:59.508Z,76.85
2019-02-02T20:00:31.918Z,77.31
2019-02-02T20:03:03.130Z,77.16
2019-02-02T20:05:34.227Z,77.13
2019-02-02T20:08:05.416Z,77.25
2019-02-02T20:10:37.121Z,77.41
2019-02-02T20:13:07.997Z,77.20
2019-02-02T20:15:39.398Z,77.24
2019-02-02T20:18:10.835Z,77.76
2019-02-02T20:20:41.885Z,77.61
2019-02-02T20:23:12.794Z,77.85
2019-02-02T20:25:43.777Z,77.67
2019-02-02T20:28:14.650Z,78.02
2019-02-02T20:30:45.653Z,77.61
2019-02-02T20:33:19.777Z,77.56
2019-02-02T20:35:49.169Z,77.42
2019-02-02T20:38:20.353Z,77.48
2019-02-02T20:40:51.033Z,78.14
2019-02-02T20:43:22.023Z,78.16
2019-02-02T20:45:53.024Z,78.06
2019-02-02T20:48:23.716Z,78.13
2019-02-02T20:50:54.603Z,78.33
2019-02-02T20:53:25.509Z,78.42
2019-02-02T20:55:56.552Z,78.53
2019-02-02T20:58:27.469Z,78.85
2019-02-02T21:00:58.750Z,78.81
2019-02-02T21:03:29.550Z,79.05
2019-02-02T21:06:00.638Z,79.28
2019-02-02T21:08:31.424Z,79.15
2019-02-02T21:11:02.317Z,79.25
2019-02-02T21:13:33.104Z,79.15
2019-02-02T21:16:04.478Z,79.37
2019-02-02T21:18:35.381Z,78.53
2019-02-02T21:21:07.078Z,78.70
2019-02-02T21:23:38.062Z,78.24
2019-02-02T21:26:09.117Z,78.68
2019-02-02T21:28:50.116Z,78.16
2019-02-02T21:31:13.095Z,78.34
2019-02-02T21:33:43.979Z,78.66
2019-02-02T21:36:14.989Z,78.12
2019-02-02T21:38:45.865Z,78.05
2019-02-02T21:41:18.536Z,78.17
2019-02-02T21:43:49.596Z,77.74
2019-02-02T21:46:20.580Z,78.01
2019-02-02T21:48:51.465Z,77.92
2019-02-02T21:51:22.644Z,77.91
2019-02-02T21:53:53.420Z,78.21
2019-02-02T21:56:24.479Z,77.95
2019-02-02T21:58:55.420Z,78.24
2019-02-02T22:01:26.420Z,78.46
2019-02-02T22:03:57.281Z,78.86
2019-02-02T22:06:28.648Z,78.58
2019-02-02T22:08:59.584Z,78.46
2019-02-02T22:11:30.485Z,78.68
2019-02-02T22:14:01.348Z,78.81
2019-02-02T22:16:32.434Z,78.81
2019-02-02T22:19:03.444Z,79.17
2019-02-02T22:21:34.617Z,79.07
2019-02-02T22:24:05.506Z,79.00
2019-02-02T22:26:37.149Z,79.40
2019-02-02T22:29:08.214Z,78.95
2019-02-02T22:31:39.215Z,79.07
2019-02-02T22:34:09.979Z,79.25
2019-02-02T22:36:41.004Z,79.35
2019-02-02T22:39:11.875Z,79.78
2019-02-02T22:41:44.114Z,79.69
2019-02-02T22:44:14.881Z,79.62
2019-02-02T22:46:45.848Z,80.16
2019-02-02T22:49:16.540Z,79.95
2019-02-02T22:51:47.480Z,79.83
2019-02-02T22:54:18.317Z,79.91
2019-02-02T22:56:49.592Z,80.11
2019-02-02T22:59:20.409Z,79.89
2019-02-02T23:01:57.565Z,79.97
2019-02-02T23:04:53.724Z,80.23
2019-02-02T23:07:59.470Z,80.59
2019-02-02T23:11:09.638Z,80.56
2019-02-02T23:14:14.199Z,80.84
2019-02-02T23:16:44.998Z,80.74
2019-02-02T23:19:15.993Z,80.96
2019-02-02T23:21:46.764Z,80.83
2019-02-02T23:24:17.648Z,81.02
2019-02-02T23:26:48.529Z,80.96
2019-02-02T23:29:19.692Z,81.03
2019-02-02T23:31:50.896Z,81.29
2019-02-02T23:34:22.097Z,81.08
2019-02-02T23:36:56.170Z,81.45
2019-02-02T23:39:25.811Z,81.56
2019-02-02T23:41:56.725Z,81.39
2019-02-02T23:44:27.712Z,81.37
2019-02-02T23:46:58.644Z,81.81
2019-02-02T23:49:29.586Z,81.74
2019-02-02T23:52:00.493Z,81.39
2019-02-02T23:54:31.369Z,81.48
2019-02-02T23:57:02.249Z,81.50
2019-02-02T23:59:35.151Z,81.34
